createdAt,value
2018-07-21T00:00:47.089Z,7.83
2018-07-21T00:03:15.831Z,9.37
2018-07-21T00:05:44.318Z,10.03
2018-07-21T00:08:12.835Z,8.50
2018-07-21T00:10:41.422Z,9.17
2018-07-21T00:13:09.884Z,10.17
2018-07-21T00:15:38.589Z,9.80
2018-07-21T00:18:07.202Z,9.97
2018-07-21T00:20:35.732Z,9.87
2018-07-21T00:23:04.369Z,9.80
2018-07-21T00:25:32.918Z,10.40
2018-07-21T00:28:01.445Z,11.00
2018-07-21T00:30:30.011Z,11.10
2018-07-21T00:32:58.562Z,11.20
2018-07-21T00:35:27.047Z,10.73
2018-07-21T00:37:55.681Z,10.70
2018-07-21T00:40:24.266Z,10.70
2018-07-21T00:42:52.806Z,10.30
2018-07-21T00:45:21.360Z,10.03
2018-07-21T00:47:49.842Z,10.70
2018-07-21T00:50:18.355Z,9.97
2018-07-21T00:52:46.902Z,10.27
2018-07-21T00:55:15.541Z,10.63
2018-07-21T00:57:44.667Z,11.17
2018-07-21T01:00:13.603Z,10.60
2018-07-21T01:02:42.500Z,10.50
2018-07-21T01:05:11.137Z,9.97
2018-07-21T01:07:40.184Z,10.97
2018-07-21T01:10:09.586Z,9.73
2018-07-21T01:12:38.603Z,11.80
2018-07-21T01:15:08.207Z,10.43
2018-07-21T01:17:36.929Z,10.43
2018-07-21T01:20:06.166Z,8.93
2018-07-21T01:22:34.962Z,8.80
2018-07-21T01:25:03.756Z,9.70
2018-07-21T01:27:32.415Z,9.50
2018-07-21T01:30:01.136Z,9.13
2018-07-21T01:32:30.147Z,9.60
2018-07-21T01:34:58.737Z,8.57
2018-07-21T01:37:27.456Z,9.23
2018-07-21T01:39:55.982Z,9.00
2018-07-21T01:42:24.518Z,8.40
2018-07-21T01:44:52.982Z,8.83
2018-07-21T01:47:21.695Z,8.47
2018-07-21T01:49:50.221Z,8.40
2018-07-21T01:52:18.852Z,9.10
2018-07-21T01:54:47.382Z,8.50
2018-07-21T01:57:15.963Z,8.00
2018-07-21T01:59:44.777Z,8.63
2018-07-21T02:02:13.513Z,8.13
2018-07-21T02:04:42.020Z,8.20
2018-07-21T02:07:10.526Z,7.83
2018-07-21T02:09:39.134Z,8.53
2018-07-21T02:12:07.654Z,8.80
2018-07-21T02:14:36.133Z,9.20
2018-07-21T02:17:04.719Z,7.87
2018-07-21T02:19:33.243Z,8.10
2018-07-21T02:22:01.736Z,8.67
2018-07-21T02:24:30.265Z,7.20
2018-07-21T02:26:58.717Z,8.10
2018-07-21T02:29:26.980Z,8.93
2018-07-21T02:31:55.442Z,6.90
2018-07-21T02:34:23.927Z,6.87
2018-07-21T02:36:52.411Z,7.20
2018-07-21T02:39:20.936Z,7.47
2018-07-21T02:41:49.410Z,7.30
2018-07-21T02:44:17.914Z,6.70
2018-07-21T02:46:46.408Z,5.53
2018-07-21T02:49:14.902Z,6.40
2018-07-21T02:51:43.427Z,5.83
2018-07-21T02:54:11.989Z,5.50
2018-07-21T02:56:40.478Z,5.33
2018-07-21T02:59:09.061Z,6.10
2018-07-21T03:01:37.569Z,5.80
2018-07-21T03:04:06.058Z,5.90
2018-07-21T03:06:34.563Z,6.50
2018-07-21T03:09:03.390Z,6.93
2018-07-21T03:11:31.883Z,5.80
2018-07-21T03:14:00.362Z,5.53
2018-07-21T03:16:28.892Z,6.30
2018-07-21T03:18:57.342Z,5.23
2018-07-21T03:21:25.829Z,6.60
2018-07-21T03:23:54.307Z,5.43
2018-07-21T03:26:22.770Z,5.83
2018-07-21T03:28:51.458Z,5.70
2018-07-21T03:31:19.997Z,5.57
2018-07-21T03:33:48.525Z,5.30
2018-07-21T03:36:17.023Z,5.80
2018-07-21T03:38:45.526Z,5.93
2018-07-21T03:41:14.008Z,5.13
2018-07-21T03:43:42.607Z,5.73
2018-07-21T03:46:11.130Z,5.90
2018-07-21T03:48:39.629Z,5.40
2018-07-21T03:51:08.129Z,5.57
2018-07-21T03:53:36.635Z,5.20
2018-07-21T03:56:05.374Z,4.93
2018-07-21T03:58:33.984Z,5.30
2018-07-21T04:01:02.886Z,5.67
2018-07-21T04:03:31.395Z,5.70
2018-07-21T04:05:59.982Z,6.40
2018-07-21T04:08:28.502Z,6.10
2018-07-21T04:10:56.983Z,6.43
2018-07-21T04:13:25.562Z,6.30
2018-07-21T04:15:54.087Z,5.93
2018-07-21T04:18:22.569Z,6.43
2018-07-21T04:20:51.150Z,6.13
2018-07-21T04:23:19.880Z,6.37
2018-07-21T04:25:48.650Z,6.90
2018-07-21T04:28:17.171Z,6.87
2018-07-21T04:30:45.687Z,5.50
2018-07-21T04:33:14.242Z,5.73
2018-07-21T04:35:42.974Z,6.30
2018-07-21T04:38:11.642Z,6.33
2018-07-21T04:40:40.162Z,6.00
2018-07-21T04:43:09.031Z,5.47
2018-07-21T04:45:37.514Z,6.37
2018-07-21T04:48:06.198Z,6.60
2018-07-21T04:50:34.710Z,6.70
2018-07-21T04:53:03.330Z,7.20
2018-07-21T04:55:31.855Z,6.60
2018-07-21T04:58:00.424Z,6.70
2018-07-21T05:00:29.080Z,6.70
2018-07-21T05:02:57.909Z,6.60
2018-07-21T05:05:26.478Z,7.97
2018-07-21T05:07:55.243Z,6.53
2018-07-21T05:10:23.943Z,6.33
2018-07-21T05:12:52.722Z,7.03
2018-07-21T05:15:21.344Z,5.47
2018-07-21T05:17:49.866Z,6.23
2018-07-21T05:20:18.374Z,7.33
2018-07-21T05:22:47.471Z,7.30
2018-07-21T05:25:16.002Z,8.17
2018-07-21T05:27:44.471Z,8.10
2018-07-21T05:30:14.427Z,6.90
2018-07-21T05:32:42.920Z,7.90
2018-07-21T05:35:11.432Z,6.70
2018-07-21T05:37:40.018Z,6.03
2018-07-21T05:40:08.541Z,7.10
2018-07-21T05:42:37.019Z,7.37
2018-07-21T05:45:05.805Z,7.00
2018-07-21T05:47:34.279Z,5.90
2018-07-21T05:50:02.462Z,7.90
2018-07-21T05:52:31.488Z,7.07
2018-07-21T05:54:59.990Z,5.63
2018-07-21T05:57:29.038Z,6.80
2018-07-21T05:59:58.142Z,5.50
2018-07-21T06:02:26.649Z,6.40
2018-07-21T06:04:55.258Z,5.90
2018-07-21T06:07:23.750Z,5.83
2018-07-21T06:09:52.346Z,6.50
2018-07-21T06:12:20.903Z,6.57
2018-07-21T06:14:49.365Z,7.03
2018-07-21T06:17:17.952Z,6.87
2018-07-21T06:19:46.484Z,7.40
2018-07-21T06:22:15.032Z,7.33
2018-07-21T06:24:43.648Z,7.80
2018-07-21T06:27:12.195Z,8.50
2018-07-21T06:29:40.748Z,7.60
2018-07-21T06:32:09.806Z,8.20
2018-07-21T06:34:38.280Z,7.23
2018-07-21T06:37:06.869Z,6.70
2018-07-21T06:39:35.546Z,7.63
2018-07-21T06:42:04.046Z,7.73
2018-07-21T06:44:32.546Z,7.37
2018-07-21T06:47:01.063Z,8.10
2018-07-21T06:49:29.609Z,7.77
2018-07-21T06:51:57.751Z,8.20
2018-07-21T06:54:26.278Z,7.50
2018-07-21T06:56:54.827Z,7.70
2018-07-21T06:59:23.307Z,7.80
2018-07-21T07:01:51.807Z,6.90
2018-07-21T07:04:20.378Z,6.90
2018-07-21T07:06:48.875Z,7.33
2018-07-21T07:09:17.394Z,7.10
2018-07-21T07:11:45.867Z,7.20
2018-07-21T07:14:14.423Z,7.07
2018-07-21T07:16:42.929Z,6.90
2018-07-21T07:19:11.456Z,6.77
2018-07-21T07:21:39.932Z,6.50
2018-07-21T07:24:08.408Z,7.10
2018-07-21T07:26:36.893Z,6.27
2018-07-21T07:29:05.592Z,6.80
2018-07-21T07:31:34.213Z,6.07
2018-07-21T07:34:02.738Z,6.17
2018-07-21T07:36:31.224Z,5.87
2018-07-21T07:38:59.719Z,6.03
2018-07-21T07:41:28.377Z,6.60
2018-07-21T07:43:56.844Z,6.30
2018-07-21T07:46:25.358Z,5.57
2018-07-21T07:48:53.855Z,6.00
2018-07-21T07:51:22.381Z,5.30
2018-07-21T07:53:50.932Z,5.27
2018-07-21T07:56:19.402Z,5.40
2018-07-21T07:58:47.878Z,4.87
2018-07-21T08:01:16.705Z,5.40
2018-07-21T08:03:45.149Z,7.60
2018-07-21T08:06:13.784Z,5.93
2018-07-21T08:08:42.358Z,6.30
2018-07-21T08:11:10.893Z,6.63
2018-07-21T08:13:39.482Z,6.67
2018-07-21T08:16:08.008Z,7.43
2018-07-21T08:18:36.695Z,7.07
2018-07-21T08:21:05.286Z,7.17
2018-07-21T08:23:33.871Z,6.57
2018-07-21T08:26:02.458Z,8.00
2018-07-21T08:28:31.278Z,7.27
2018-07-21T08:30:59.853Z,7.63
2018-07-21T08:33:28.623Z,8.07
2018-07-21T08:35:57.245Z,7.70
2018-07-21T08:38:25.902Z,7.30
2018-07-21T08:40:54.474Z,7.93
2018-07-21T08:43:23.406Z,7.73
2018-07-21T08:45:51.898Z,8.20
2018-07-21T08:48:20.378Z,9.00
2018-07-21T08:50:48.890Z,8.97
2018-07-21T08:53:17.524Z,9.43
2018-07-21T08:55:46.084Z,8.97
2018-07-21T08:58:14.695Z,10.20
2018-07-21T09:00:44.060Z,9.90
2018-07-21T09:03:12.813Z,10.03
2018-07-21T09:05:41.431Z,9.80
2018-07-21T09:08:10.439Z,10.90
2018-07-21T09:10:38.958Z,9.50
2018-07-21T09:13:07.533Z,11.40
2018-07-21T09:15:36.098Z,8.50
2018-07-21T09:18:04.736Z,9.47
2018-07-21T09:20:33.609Z,9.80
2018-07-21T09:23:02.137Z,9.73
2018-07-21T09:25:30.647Z,10.47
2018-07-21T09:27:59.521Z,11.60
2018-07-21T09:30:28.188Z,10.73
2018-07-21T09:32:56.686Z,11.93
2018-07-21T09:35:25.495Z,12.00
2018-07-21T09:37:54.028Z,10.70
2018-07-21T09:40:22.554Z,11.83
2018-07-21T09:42:51.482Z,10.60
2018-07-21T09:45:19.953Z,11.60
2018-07-21T09:47:49.097Z,10.70
2018-07-21T09:50:17.724Z,10.70
2018-07-21T09:52:46.255Z,10.97
2018-07-21T09:55:14.735Z,9.77
2018-07-21T09:57:43.235Z,7.97
2018-07-21T10:00:13.518Z,10.07
2018-07-21T10:02:42.104Z,9.93
2018-07-21T10:05:10.602Z,10.37
2018-07-21T10:07:39.153Z,8.43
2018-07-21T10:10:07.780Z,7.60
2018-07-21T10:12:36.309Z,8.30
2018-07-21T10:15:05.450Z,8.60
2018-07-21T10:17:34.035Z,8.30
2018-07-21T10:20:02.683Z,10.23
2018-07-21T10:22:31.173Z,12.80
2018-07-21T10:25:04.633Z,10.33
2018-07-21T10:27:38.596Z,11.17
2018-07-21T10:30:07.295Z,10.20
2018-07-21T10:32:35.810Z,10.73
2018-07-21T10:35:04.452Z,8.13
2018-07-21T10:37:33.311Z,7.60
2018-07-21T10:40:01.984Z,8.40
2018-07-21T10:42:30.501Z,7.83
2018-07-21T10:44:58.965Z,8.40
2018-07-21T10:47:27.531Z,9.33
2018-07-21T10:49:55.997Z,11.13
2018-07-21T10:52:24.505Z,10.93
2018-07-21T10:54:53.187Z,11.07
2018-07-21T10:57:21.775Z,12.30
2018-07-21T10:59:50.397Z,10.07
2018-07-21T11:02:18.910Z,9.67
2018-07-21T11:04:47.447Z,11.20
2018-07-21T11:07:15.936Z,12.23
2018-07-21T11:09:44.524Z,9.83
2018-07-21T11:12:13.063Z,7.90
2018-07-21T11:14:41.542Z,9.00
2018-07-21T11:17:10.050Z,10.80
2018-07-21T11:19:38.603Z,10.17
2018-07-21T11:22:07.134Z,9.00
2018-07-21T11:24:35.668Z,8.83
2018-07-21T11:27:04.247Z,10.10
2018-07-21T11:29:32.863Z,8.60
2018-07-21T11:32:01.460Z,9.70
2018-07-21T11:34:30.135Z,10.50
2018-07-21T11:36:58.752Z,10.10
2018-07-21T11:39:27.335Z,11.50
2018-07-21T11:41:55.854Z,10.40
2018-07-21T11:44:24.832Z,11.40
2018-07-21T11:46:53.350Z,10.80
2018-07-21T11:49:21.953Z,11.80
2018-07-21T11:51:50.611Z,11.37
2018-07-21T11:54:19.215Z,10.67
2018-07-21T11:56:47.708Z,12.00
2018-07-21T11:59:16.398Z,11.00
2018-07-21T12:01:44.907Z,11.10
2018-07-21T12:04:13.389Z,12.00
2018-07-21T12:06:41.886Z,10.73
2018-07-21T12:09:10.480Z,9.10
2018-07-21T12:11:39.053Z,10.37
2018-07-21T12:14:07.631Z,11.00
2018-07-21T12:16:36.193Z,9.50
2018-07-21T12:19:05.319Z,9.40
2018-07-21T12:21:33.882Z,9.50
2018-07-21T12:24:02.349Z,9.90
2018-07-21T12:26:30.854Z,9.80
2018-07-21T12:28:59.560Z,9.87
2018-07-21T12:31:28.087Z,9.73
2018-07-21T12:33:58.139Z,7.80
2018-07-21T12:36:26.796Z,8.03
2018-07-21T12:38:55.278Z,7.13
2018-07-21T12:41:25.013Z,7.97
2018-07-21T12:43:53.615Z,8.93
2018-07-21T12:46:22.192Z,8.80
2018-07-21T12:48:50.371Z,7.47
2018-07-21T12:51:18.956Z,7.53
2018-07-21T12:53:47.864Z,6.37
2018-07-21T12:56:16.379Z,6.30
2018-07-21T12:58:45.024Z,6.40
2018-07-21T13:01:13.544Z,6.77
2018-07-21T13:03:42.121Z,5.93
2018-07-21T13:06:10.772Z,7.27
2018-07-21T13:08:39.435Z,6.97
2018-07-21T13:11:08.014Z,6.53
2018-07-21T13:13:36.582Z,7.20
2018-07-21T13:16:05.238Z,6.87
2018-07-21T13:18:33.683Z,6.90
2018-07-21T13:21:02.257Z,6.47
2018-07-21T13:23:30.899Z,6.97
2018-07-21T13:25:59.446Z,5.97
2018-07-21T13:28:28.045Z,7.20
2018-07-21T13:30:56.589Z,6.30
2018-07-21T13:33:25.172Z,7.50
2018-07-21T13:35:53.947Z,8.13
2018-07-21T13:38:22.530Z,8.40
2018-07-21T13:40:51.060Z,6.73
2018-07-21T13:43:19.857Z,7.57
2018-07-21T13:45:48.379Z,7.03
2018-07-21T13:48:16.847Z,6.37
2018-07-21T13:50:45.391Z,7.23
2018-07-21T13:53:14.036Z,7.70
2018-07-21T13:55:42.603Z,9.10
2018-07-21T13:58:11.313Z,9.43
2018-07-21T14:00:39.841Z,8.53
2018-07-21T14:03:07.997Z,9.80
2018-07-21T14:05:36.611Z,8.60
2018-07-21T14:08:05.223Z,9.37
2018-07-21T14:10:33.703Z,9.73
2018-07-21T14:13:02.244Z,10.53
2018-07-21T14:15:30.765Z,10.33
2018-07-21T14:17:59.349Z,9.70
2018-07-21T14:20:27.877Z,10.40
2018-07-21T14:22:56.401Z,10.53
2018-07-21T14:25:24.927Z,11.33
2018-07-21T14:27:53.507Z,12.17
2018-07-21T14:30:22.146Z,10.97
2018-07-21T14:32:50.710Z,12.83
2018-07-21T14:35:19.439Z,13.17
2018-07-21T14:37:48.362Z,14.43
2018-07-21T14:40:17.003Z,13.83
2018-07-21T14:42:45.553Z,12.60
2018-07-21T14:45:14.074Z,12.87
2018-07-21T14:47:42.558Z,12.83
2018-07-21T14:50:11.076Z,11.20
2018-07-21T14:52:39.778Z,11.10
2018-07-21T14:55:08.347Z,11.63
2018-07-21T14:57:36.787Z,9.90
2018-07-21T15:00:06.176Z,9.57
2018-07-21T15:02:34.687Z,9.97
2018-07-21T15:05:03.311Z,9.70
2018-07-21T15:07:32.068Z,9.60
2018-07-21T15:10:00.650Z,10.70
2018-07-21T15:12:29.231Z,11.33
2018-07-21T15:14:57.987Z,11.20
2018-07-21T15:17:26.540Z,10.00
2018-07-21T15:19:55.408Z,9.10
2018-07-21T15:22:24.281Z,8.80
2018-07-21T15:24:52.859Z,9.33
2018-07-21T15:27:21.566Z,9.33
2018-07-21T15:29:50.172Z,6.80
2018-07-21T15:32:18.792Z,7.80
2018-07-21T15:34:47.391Z,7.70
2018-07-21T15:37:15.895Z,7.77
2018-07-21T15:39:44.478Z,8.50
2018-07-21T15:42:13.247Z,7.17
2018-07-21T15:44:41.688Z,9.17
2018-07-21T15:47:10.197Z,6.73
2018-07-21T15:49:38.714Z,8.43
2018-07-21T15:52:07.250Z,8.10
2018-07-21T15:54:35.728Z,8.47
2018-07-21T15:57:04.271Z,8.73
2018-07-21T15:59:32.744Z,9.07
2018-07-21T16:02:01.212Z,10.87
2018-07-21T16:04:29.393Z,11.20
2018-07-21T16:06:57.977Z,11.10
2018-07-21T16:09:26.593Z,10.63
2018-07-21T16:11:55.079Z,9.43
2018-07-21T16:14:23.607Z,11.20
2018-07-21T16:16:52.419Z,12.93
2018-07-21T16:19:21.018Z,12.20
2018-07-21T16:21:49.555Z,10.10
2018-07-21T16:24:18.108Z,8.83
2018-07-21T16:26:46.615Z,8.70
2018-07-21T16:29:15.145Z,8.53
2018-07-21T16:31:43.652Z,9.10
2018-07-21T16:34:14.016Z,9.90
2018-07-21T16:36:42.744Z,9.57
2018-07-21T16:39:12.141Z,10.30
2018-07-21T16:41:40.615Z,11.60
2018-07-21T16:44:09.209Z,12.70
2018-07-21T16:46:37.750Z,12.50
2018-07-21T16:49:12.768Z,10.63
2018-07-21T16:51:41.567Z,9.90
2018-07-21T16:54:10.060Z,11.43
2018-07-21T16:56:38.534Z,11.20
2018-07-21T16:59:07.087Z,10.77
2018-07-21T17:01:35.579Z,10.60
2018-07-21T17:04:04.135Z,11.80
2018-07-21T17:06:32.659Z,11.23
2018-07-21T17:09:01.144Z,11.50
2018-07-21T17:11:29.933Z,12.53
2018-07-21T17:13:58.566Z,12.80
2018-07-21T17:16:27.057Z,13.30
2018-07-21T17:18:55.217Z,14.10
2018-07-21T17:21:24.448Z,12.60
2018-07-21T17:23:52.957Z,11.60
2018-07-21T17:26:21.464Z,9.50
2018-07-21T17:28:49.975Z,7.63
2018-07-21T17:31:18.486Z,9.30
2018-07-21T17:33:47.066Z,8.57
2018-07-21T17:36:15.554Z,7.47
2018-07-21T17:38:45.674Z,9.60
2018-07-21T17:41:14.304Z,9.30
2018-07-21T17:43:42.834Z,9.07
2018-07-21T17:46:11.384Z,9.00
2018-07-21T17:48:39.858Z,9.43
2018-07-21T17:51:08.408Z,9.87
2018-07-21T17:53:36.987Z,11.63
2018-07-21T17:56:05.832Z,10.60
2018-07-21T17:58:34.331Z,10.30
2018-07-21T18:01:03.706Z,11.93
2018-07-21T18:03:32.295Z,14.10
2018-07-21T18:06:00.875Z,13.00
2018-07-21T18:08:29.495Z,13.40
2018-07-21T18:10:57.990Z,11.50
2018-07-21T18:13:26.522Z,12.57
2018-07-21T18:15:55.162Z,12.97
2018-07-21T18:18:23.715Z,14.17
2018-07-21T18:20:52.275Z,14.97
2018-07-21T18:23:21.182Z,17.17
2018-07-21T18:25:49.913Z,12.20
2018-07-21T18:28:18.440Z,12.70
2018-07-21T18:30:47.108Z,13.07
2018-07-21T18:33:15.671Z,12.93
2018-07-21T18:35:44.178Z,25.20
2018-07-21T18:38:12.701Z,17.67
2018-07-21T18:40:41.210Z,15.77
2018-07-21T18:43:09.699Z,17.57
2018-07-21T18:45:38.381Z,15.80
2018-07-21T18:48:06.913Z,17.60
2018-07-21T18:50:35.581Z,14.53
2018-07-21T18:53:04.303Z,14.93
2018-07-21T18:55:32.833Z,16.07
2018-07-21T18:58:01.376Z,17.30
2018-07-21T19:00:29.973Z,14.70
2018-07-21T19:02:58.605Z,15.77
2018-07-21T19:05:27.196Z,14.20
2018-07-21T19:07:55.848Z,14.80
2018-07-21T19:10:24.387Z,14.47
2018-07-21T19:12:52.981Z,15.93
2018-07-21T19:15:26.927Z,16.00
2018-07-21T19:17:55.520Z,16.30
2018-07-21T19:20:29.726Z,16.50
2018-07-21T19:22:58.368Z,16.93
2018-07-21T19:25:32.467Z,17.90
2018-07-21T19:28:01.138Z,20.13
2018-07-21T19:30:29.961Z,17.43
2018-07-21T19:33:00.860Z,17.83
2018-07-21T19:35:31.016Z,17.57
2018-07-21T19:37:59.914Z,18.00
2018-07-21T19:40:28.600Z,16.90
2018-07-21T19:42:57.278Z,17.00
2018-07-21T19:45:25.835Z,17.73
2018-07-21T19:47:54.394Z,16.67
2018-07-21T19:50:22.939Z,20.80
2018-07-21T19:52:51.519Z,20.27
2018-07-21T19:55:20.051Z,18.40
2018-07-21T19:57:48.579Z,19.60
2018-07-21T20:00:17.230Z,18.93
2018-07-21T20:02:45.731Z,19.03
2018-07-21T20:05:15.186Z,18.33
2018-07-21T20:07:43.727Z,18.50
2018-07-21T20:10:12.247Z,19.60
2018-07-21T20:12:40.743Z,18.43
2018-07-21T20:15:09.387Z,18.03
2018-07-21T20:17:37.947Z,17.90
2018-07-21T20:20:08.737Z,18.60
2018-07-21T20:22:37.266Z,18.67
2018-07-21T20:25:06.565Z,17.70
2018-07-21T20:27:35.102Z,20.60
2018-07-21T20:30:03.639Z,35.67
2018-07-21T20:32:32.166Z,62.27
2018-07-21T20:35:00.353Z,50.10
2018-07-21T20:37:28.882Z,42.00
2018-07-21T20:39:57.425Z,26.87
2018-07-21T20:42:26.030Z,21.80
2018-07-21T20:44:57.426Z,19.73
2018-07-21T20:47:25.959Z,14.73
2018-07-21T20:49:54.604Z,15.27
2018-07-21T20:52:23.082Z,15.47
2018-07-21T20:54:51.701Z,14.90
2018-07-21T20:57:20.260Z,14.30
2018-07-21T20:59:48.818Z,13.30
2018-07-21T21:02:17.350Z,13.90
2018-07-21T21:04:46.147Z,12.67
2018-07-21T21:07:14.709Z,12.57
2018-07-21T21:09:43.266Z,12.80
2018-07-21T21:12:11.843Z,13.17
2018-07-21T21:14:40.660Z,13.20
2018-07-21T21:17:09.159Z,12.93
2018-07-21T21:19:37.801Z,12.20
2018-07-21T21:22:06.695Z,13.07
2018-07-21T21:24:35.197Z,12.70
2018-07-21T21:27:03.713Z,11.80
2018-07-21T21:29:32.225Z,14.07
2018-07-21T21:32:00.847Z,13.20
2018-07-21T21:34:29.327Z,12.90
2018-07-21T21:36:57.827Z,12.90
2018-07-21T21:39:26.532Z,13.00
2018-07-21T21:41:54.742Z,14.20
2018-07-21T21:44:23.315Z,13.70
2018-07-21T21:46:51.835Z,14.10
2018-07-21T21:49:20.511Z,15.00
2018-07-21T21:51:48.995Z,14.50
2018-07-21T21:54:17.559Z,14.80
2018-07-21T21:56:46.063Z,13.60
2018-07-21T21:59:14.687Z,14.97
2018-07-21T22:01:43.252Z,13.40
2018-07-21T22:04:11.977Z,13.37
2018-07-21T22:06:40.544Z,13.73
2018-07-21T22:09:10.365Z,14.00
2018-07-21T22:11:38.858Z,14.70
2018-07-21T22:14:07.808Z,12.20
2018-07-21T22:16:36.359Z,13.37
2018-07-21T22:19:05.004Z,14.30
2018-07-21T22:21:33.508Z,14.87
2018-07-21T22:24:02.232Z,14.50
2018-07-21T22:26:30.713Z,15.70
2018-07-21T22:28:59.421Z,15.33
2018-07-21T22:31:27.910Z,15.00
2018-07-21T22:33:56.446Z,13.90
2018-07-21T22:36:24.972Z,15.90
2018-07-21T22:38:53.529Z,14.07
2018-07-21T22:41:22.039Z,14.93
2018-07-21T22:43:50.553Z,14.07
2018-07-21T22:46:19.411Z,14.53
2018-07-21T22:48:47.955Z,13.77
2018-07-21T22:51:16.660Z,13.63
2018-07-21T22:53:45.263Z,12.73
2018-07-21T22:56:13.860Z,15.20
2018-07-21T22:58:42.389Z,12.43
2018-07-21T23:01:10.891Z,14.33
2018-07-21T23:03:39.366Z,14.50
2018-07-21T23:06:07.970Z,12.83
2018-07-21T23:08:36.569Z,13.90
2018-07-21T23:11:05.166Z,14.23
2018-07-21T23:13:33.646Z,12.07
2018-07-21T23:16:02.127Z,13.33
2018-07-21T23:18:30.645Z,13.90
2018-07-21T23:20:59.122Z,12.80
2018-07-21T23:23:27.627Z,14.40
2018-07-21T23:25:56.172Z,12.50
2018-07-21T23:28:24.969Z,13.07
2018-07-21T23:30:53.518Z,12.27
2018-07-21T23:33:22.201Z,13.93
2018-07-21T23:35:50.711Z,13.87
2018-07-21T23:38:19.188Z,12.47
2018-07-21T23:40:47.677Z,12.50
2018-07-21T23:43:16.355Z,12.40
2018-07-21T23:45:44.916Z,13.70
2018-07-21T23:48:13.361Z,14.30
2018-07-21T23:50:41.916Z,11.87
2018-07-21T23:53:10.389Z,12.80
2018-07-21T23:55:38.899Z,12.20
2018-07-21T23:58:07.471Z,15.50
